Time;durP1;ratioP1;P1;durP2;ratioP2;P2;SDS_P1;SDS_P2;PMS_P1;PMS_P2;Temp;Humidity;BMP_temperature;BMP_pressure;BME280_temperature;BME280_humidity;BME280_pressure;Samples;Min_cycle;Max_cycle;Signal;HPM_P1;HPM_P2
2022/04/11 00:01:09;;;;;;;15.23;10.40;;;;;;;4.47;70.07;101768.19;5154567;29;20027;-79
2022/04/11 00:03:40;;;;;;;14.80;8.97;;;;;;;4.43;70.86;101761.19;5154507;29;20519;-78
2022/04/11 00:06:12;;;;;;;11.83;9.00;;;;;;;4.43;71.51;101762.88;5137138;29;20034;-78
2022/04/11 00:08:43;;;;;;;14.30;9.27;;;;;;;4.34;71.03;101763.50;5153997;29;20031;-78
2022/04/11 00:11:15;;;;;;;15.17;9.37;;;;;;;4.31;71.53;101751.38;5155259;29;20027;-79
2022/04/11 00:13:47;;;;;;;14.40;9.93;;;;;;;4.33;71.04;101746.25;5138569;29;20046;-78
2022/04/11 00:16:19;;;;;;;12.98;9.65;;;;;;;4.30;71.53;101747.06;5138016;29;20051;-80
2022/04/11 00:18:51;;;;;;;14.70;9.80;;;;;;;4.32;71.86;101745.41;5138255;29;20027;-77
2022/04/11 00:21:23;;;;;;;10.98;9.45;;;;;;;4.25;72.22;101740.00;5138099;29;20042;-78
2022/04/11 00:23:54;;;;;;;12.37;9.23;;;;;;;4.31;72.29;101756.53;5154224;29;20031;-79
2022/04/11 00:26:26;;;;;;;14.03;10.17;;;;;;;4.31;72.65;101753.97;5155939;29;20059;-79
2022/04/11 00:28:57;;;;;;;14.97;10.13;;;;;;;4.30;72.64;101748.75;5155663;29;20024;-78
2022/04/11 00:31:33;;;;;;;15.93;9.83;;;;;;;4.29;72.83;101744.44;5155143;29;20031;-78
2022/04/11 00:34:04;;;;;;;13.68;9.43;;;;;;;4.29;72.79;101731.53;5155447;29;20427;-78
2022/04/11 00:36:37;;;;;;;15.87;10.07;;;;;;;4.32;72.54;101735.06;5155329;29;20035;-81
2022/04/11 00:39:08;;;;;;;;;;;;;;;4.45;70.71;101738.88;5155378;29;20480;-80
2022/04/11 00:41:40;;;;;;;13.73;9.73;;;;;;;4.35;73.04;101727.41;5154534;29;19919;-80
2022/04/11 00:44:12;;;;;;;17.17;10.70;;;;;;;4.32;72.53;101729.91;5138322;29;20035;-78
2022/04/11 00:46:43;;;;;;;21.50;11.17;;;;;;;4.35;72.83;101716.22;5137475;29;20093;-80
2022/04/11 00:49:15;;;;;;;16.43;10.97;;;;;;;4.35;72.80;101726.56;5138039;29;20043;-80
2022/04/11 00:51:46;;;;;;;15.33;10.40;;;;;;;4.34;73.54;101714.47;5157246;28;20034;-80
2022/04/11 00:54:17;;;;;;;16.83;10.30;;;;;;;4.32;74.14;101713.56;5141377;29;20027;-80
2022/04/11 00:56:50;;;;;;;18.30;10.70;;;;;;;4.30;74.20;101713.53;5141507;29;20130;-81
2022/04/11 00:59:24;;;;;;;16.75;10.02;;;;;;;4.27;72.97;101709.97;5141883;29;20057;-79
2022/04/11 01:02:04;;;;;;;19.40;10.82;;;;;;;4.34;73.66;101704.16;5142023;29;20085;-81
2022/04/11 01:04:39;;;;;;;17.08;10.63;;;;;;;4.35;73.54;101709.34;5141858;29;20038;-79
2022/04/11 01:07:10;;;;;;;21.77;11.13;;;;;;;4.30;74.53;101710.94;5141615;29;20039;-78
2022/04/11 01:09:42;;;;;;;15.13;10.60;;;;;;;4.34;74.46;101711.88;5158615;29;20360;-79
2022/04/11 01:12:15;;;;;;;16.17;10.13;;;;;;;4.28;74.39;101701.38;5158545;29;20070;-81
2022/04/11 01:14:46;;;;;;;21.80;11.27;;;;;;;4.29;74.31;101697.97;5141216;29;20039;-80
2022/04/11 01:17:18;;;;;;;17.17;10.60;;;;;;;4.20;73.34;101703.75;5158787;29;20447;-78
2022/04/11 01:19:52;;;;;;;18.77;11.10;;;;;;;4.29;74.18;101709.16;5158210;29;20032;-80
2022/04/11 01:22:23;;;;;;;22.20;11.48;;;;;;;4.26;74.57;101700.47;5140807;29;20031;-77
2022/04/11 01:24:55;;;;;;;19.13;10.87;;;;;;;4.27;74.25;101697.06;5140710;29;20029;-80
2022/04/11 01:27:32;;;;;;;14.47;10.77;;;;;;;4.27;74.77;101703.09;5141258;29;20042;-78
2022/04/11 01:30:05;;;;;;;18.20;11.27;;;;;;;4.20;74.12;101702.06;5141026;29;20435;-79
2022/04/11 01:32:40;;;;;;;19.40;10.50;;;;;;;4.25;74.61;101703.88;5158559;29;20027;-80
2022/04/11 01:35:22;;;;;;;16.35;11.80;;;;;;;4.26;74.73;101703.94;5157929;29;20514;-79
2022/04/11 01:37:55;;;;;;;18.27;11.40;;;;;;;4.25;74.57;101699.63;5141367;29;20111;-82
2022/04/11 01:40:29;;;;;;;19.75;11.85;;;;;;;4.26;75.04;101708.22;5141381;29;20023;-81
2022/04/11 01:43:01;;;;;;;17.60;10.98;;;;;;;4.11;73.88;101698.34;5141721;29;20066;-81
2022/04/11 01:45:32;;;;;;;14.43;10.23;;;;;;;4.17;74.34;101703.66;5141808;29;20115;-77
2022/04/11 01:48:04;;;;;;;13.40;10.20;;;;;;;4.11;74.24;101693.19;5163796;29;20027;-80
2022/04/11 01:50:35;;;;;;;13.43;11.27;;;;;;;4.12;74.51;101702.66;5144214;29;20035;-80
2022/04/11 01:53:09;;;;;;;19.60;11.37;;;;;;;4.12;75.06;101694.91;5149222;29;20089;-78
2022/04/11 01:55:41;;;;;;;20.67;11.63;;;;;;;4.09;74.75;101703.47;5164361;29;20047;-78
2022/04/11 01:58:14;;;;;;;12.70;11.17;;;;;;;4.09;75.17;101698.31;5142592;29;20040;-78
2022/04/11 02:00:45;;;;;;;14.95;11.20;;;;;;;4.09;75.27;101690.56;5159149;29;20027;-79
2022/04/11 02:03:17;;;;;;;14.30;10.63;;;;;;;4.11;75.86;101695.78;5157947;28;20388;-78
2022/04/11 02:05:48;;;;;;;19.63;11.80;;;;;;;4.06;75.87;101685.31;5141460;29;20121;-77
2022/04/11 02:08:20;;;;;;;14.40;10.30;;;;;;;4.04;76.02;101691.25;5141052;29;20395;-77
2022/04/11 02:10:52;;;;;;;17.23;11.67;;;;;;;3.94;76.56;101683.25;5141708;29;20538;-79
2022/04/11 02:13:26;;;;;;;16.00;11.60;;;;;;;3.92;77.21;101686.63;5143058;29;20070;-77
2022/04/11 02:15:59;;;;;;;17.95;9.68;;;;;;;3.84;76.32;101687.25;5157920;29;20118;-79
2022/04/11 02:18:32;;;;;;;16.05;9.98;;;;;;;3.78;76.37;101686.22;5157931;29;20035;-79
2022/04/11 02:21:06;;;;;;;14.75;10.88;;;;;;;3.70;77.05;101679.94;5140815;29;20023;-79
2022/04/11 10:23:02;;;;;;;;;;;;;;;;;;;;;
2022/04/11 10:26:03;;;;;;;6.65;3.10;;;;;;;20.68;26.00;101500.22;4998488;29;20053;-78
2022/04/11 10:33:17;;;;;;;6.78;3.13;;;;;;;21.57;25.55;101484.72;4961938;30;20043;-81
2022/04/11 10:39:55;;;;;;;6.43;2.85;;;;;;;21.60;23.04;101487.22;4962727;29;20055;-78
2022/04/11 10:43:15;;;;;;;;;;;;;;;;;;;;;
2022/04/11 10:46:42;;;;;;;;;;;;;;;;;;;;;
2022/04/11 10:49:30;;;;;;;6.75;2.85;;;;;;;21.57;23.13;101463.50;4923833;30;20055;-80
2022/04/11 10:56:02;;;;;;;4.13;2.55;;;;;;;22.30;23.80;101465.25;4937547;30;20036;-78
2022/04/11 10:59:06;;;;;;;6.53;2.88;;;;;;;22.72;22.79;101454.19;4966436;29;20047;-81
2022/04/11 11:12:43;;;;;;;5.88;3.05;;;;;;;23.32;22.41;101435.94;4958416;29;20055;-78
2022/04/11 11:26:24;;;;;;;3.70;3.03;;;;;;;25.04;20.41;101408.84;4940464;30;20461;-80
2022/04/11 11:29:16;;;;;;;6.60;3.05;;;;;;;23.75;20.21;101397.06;4903684;30;20069;-80
2022/04/11 11:39:31;;;;;;;5.88;2.97;;;;;;;24.78;20.83;101376.69;4867125;30;20073;-80
2022/04/11 11:45:51;;;;;;;5.10;2.90;;;;;;;24.96;18.74;101369.31;4849501;30;20054;-78
2022/04/11 11:52:54;;;;;;;6.82;3.58;;;;;;;25.35;19.15;101359.69;4849620;30;20058;-79
2022/04/11 11:55:28;;;;;;;4.18;2.63;;;;;;;25.10;18.75;101342.63;4767976;31;20056;-82
2022/04/11 11:59:08;;;;;;;6.82;3.00;;;;;;;26.18;18.92;101338.06;4786678;30;20047;-81
2022/04/11 12:05:29;;;;;;;7.65;2.90;;;;;;;26.38;17.98;101349.19;4840433;30;20046;-80
2022/04/11 12:08:03;;;;;;;5.25;2.70;;;;;;;26.14;17.57;101328.56;4884995;30;20052;-79
2022/04/11 12:10:37;;;;;;;9.18;3.10;;;;;;;26.13;17.52;101334.88;4885099;30;20136;-80
2022/04/11 12:17:09;;;;;;;6.72;3.30;;;;;;;26.20;17.67;101330.78;4919574;29;20143;-80
2022/04/11 12:20:43;;;;;;;;;;;;;;;;;;;;;
2022/04/11 12:23:28;;;;;;;5.88;3.17;;;;;;;25.88;18.86;101325.00;4921881;30;20037;-80
2022/04/11 12:26:21;;;;;;;;;;;;;;;;;;;;;
2022/04/11 12:28:53;;;;;;;8.20;3.63;;;;;;;25.86;16.73;101329.59;4958340;30;20070;-79
2022/04/11 12:31:28;;;;;;;5.45;3.38;;;;;;;26.47;17.07;101319.13;4960228;29;20048;-80
2022/04/11 12:34:12;;;;;;;6.07;3.50;;;;;;;27.03;16.77;101329.38;4961403;29;20051;-81
2022/04/11 12:37:02;;;;;;;8.10;4.45;;;;;;;27.44;16.94;101305.84;4995980;29;20051;-80
2022/04/11 12:39:53;;;;;;;8.35;4.00;;;;;;;27.47;18.21;101294.91;4997321;29;20384;-80
2022/04/11 12:42:47;;;;;;;5.57;4.20;;;;;;;27.58;18.12;101307.44;4997502;29;20078;-79
2022/04/11 12:45:28;;;;;;;6.63;4.78;;;;;;;26.44;17.54;101305.13;4998805;29;20091;-81
2022/04/11 12:48:07;;;;;;;9.93;4.95;;;;;;;26.54;18.10;101308.84;5001239;29;20043;-83
2022/04/11 12:50:39;;;;;;;8.70;5.70;;;;;;;26.71;17.38;101303.16;5005577;29;20047;-82
2022/04/11 12:53:13;;;;;;;8.65;5.00;;;;;;;27.17;17.58;101287.34;5047909;29;20060;-81
2022/04/11 12:55:45;;;;;;;8.52;5.78;;;;;;;27.18;18.46;101295.25;5079382;29;20033;-82
2022/04/11 12:59:08;;;;;;;9.85;6.28;;;;;;;28.33;17.44;101303.44;5062725;29;20560;-81
2022/04/11 13:06:37;;;;;;;;;;;;;;;;;;;;;
2022/04/11 13:09:48;;;;;;;;;;;;;;;;;;;;;
2022/04/11 13:13:15;;;;;;;8.57;5.18;;;;;;;29.15;15.91;101272.66;5037433;29;20467;-81
2022/04/11 13:25:57;;;;;;;9.75;5.35;;;;;;;28.10;16.33;101283.84;4981187;30;20474;-80
2022/04/11 13:28:42;;;;;;;10.25;5.70;;;;;;;28.69;16.34;101261.22;4980816;30;20114;-79
2022/04/11 13:31:19;;;;;;;8.23;4.65;;;;;;;28.37;17.23;101256.66;4980062;29;20108;-81
2022/04/11 13:37:38;;;;;;;11.98;5.45;;;;;;;29.60;14.63;101241.06;4900401;30;20045;-80
2022/04/11 13:40:21;;;;;;;8.02;4.88;;;;;;;29.59;16.16;101238.50;4922464;30;20128;-79
2022/04/11 13:42:55;;;;;;;7.60;4.75;;;;;;;29.16;16.14;101228.72;4924746;30;20049;-80
2022/04/11 13:49:28;;;;;;;9.00;5.60;;;;;;;29.49;16.27;101227.69;4924054;30;20049;-79
2022/04/11 13:56:54;;;;;;;;;;;;;;;;;;;;;
2022/04/11 14:01:01;;;;;;;;;;;;;;;;;;;;;
2022/04/11 14:33:43;;;;;;;7.88;4.63;;;;;;;30.66;14.71;101142.06;5002091;29;20049;-81
2022/04/11 14:36:25;;;;;;;7.13;4.30;;;;;;;30.00;13.92;101145.38;5040749;29;20603;-79
2022/04/11 14:39:18;;;;;;;9.00;4.18;;;;;;;31.33;13.96;101138.56;5034352;29;20508;-80
2022/04/11 14:42:42;;;;;;;8.15;4.28;;;;;;;31.31;13.87;101141.41;5050788;29;20053;-80
2022/04/11 14:45:34;;;;;;;8.88;4.05;;;;;;;30.69;13.03;101132.88;5040401;29;20410;-79
2022/04/11 14:48:37;;;;;;;6.47;4.13;;;;;;;30.14;13.25;101131.53;5027705;29;20443;-79
2022/04/11 14:51:18;;;;;;;;;;;;;;;;;;;;;
2022/04/11 14:54:23;;;;;;;9.55;4.63;;;;;;;29.62;13.98;101128.97;5039341;29;20052;-79
2022/04/11 14:57:06;;;;;;;7.22;4.10;;;;;;;30.41;13.72;101110.34;5039484;29;20049;-81
2022/04/11 14:59:54;;;;;;;7.80;4.65;;;;;;;29.65;14.49;101122.44;5037374;29;20131;-80
2022/04/11 15:02:30;;;;;;;10.35;4.38;;;;;;;28.59;14.60;101120.81;5055621;29;20046;-78
2022/04/11 15:05:34;;;;;;;7.97;4.15;;;;;;;28.11;14.67;101117.56;5041787;29;20037;-76
2022/04/11 15:08:49;;;;;;;;;;;;;;;;;;;;;
2022/04/11 15:14:34;;;;;;;7.28;4.60;;;;;;;26.68;16.30;101102.81;5102881;29;20041;-79
2022/04/11 15:40:22;;;;;;;7.50;4.03;;;;;;;23.94;19.52;101087.16;5015526;29;20450;-78
2022/04/11 16:15:17;;;;;;;8.38;3.78;;;;;;;22.19;21.99;101051.56;4959585;30;20051;-79
2022/04/11 16:21:20;;;;;;;;;;;;;;;;;;;;;
2022/04/11 16:28:44;;;;;;;;;;;;;;;;;;;;;
2022/04/11 16:31:52;;;;;;;7.47;3.75;;;;;;;23.41;20.42;101023.03;4965975;29;20055;-76
2022/04/11 16:34:38;;;;;;;8.50;4.10;;;;;;;23.22;20.65;101010.06;5018929;29;20209;-79
2022/04/11 20:50:36;;;;;;;;;;;;;;;;;;;;;
2022/04/11 20:57:30;;;;;;;11.93;5.13;;;;;;;12.52;39.88;100977.41;4919107;30;20029;-82
2022/04/11 21:00:06;;;;;;;7.93;4.28;;;;;;;12.41;39.98;100974.13;4908011;30;20053;-77
2022/04/11 21:16:25;;;;;;;9.45;4.63;;;;;;;12.25;41.55;100993.59;4875493;30;20541;-80
2022/04/11 21:22:48;;;;;;;7.85;4.85;;;;;;;12.18;41.24;100998.91;4896382;30;20522;-79
